createdAt,value
2022-09-21T00:02:02.555Z,-80
2022-09-21T00:04:30.975Z,-79
2022-09-21T00:06:59.376Z,-79
2022-09-21T00:09:27.777Z,-80
2022-09-21T00:11:58.396Z,-79
2022-09-21T00:14:27.202Z,-80
2022-09-21T00:16:57.017Z,-80
2022-09-21T00:19:25.429Z,-79
2022-09-21T00:21:56.567Z,-79
2022-09-21T00:24:24.966Z,-79
2022-09-21T00:26:53.697Z,-80
2022-09-21T00:29:22.165Z,-80
2022-09-21T00:31:50.519Z,-80
2022-09-21T00:34:20.630Z,-80
2022-09-21T00:36:49.015Z,-80
2022-09-21T00:39:17.433Z,-80
2022-09-21T00:41:45.949Z,-80
2022-09-21T00:44:32.795Z,-80
2022-09-21T00:47:11.072Z,-80
2022-09-21T00:49:42.347Z,-80
2022-09-21T00:52:14.964Z,-80
2022-09-21T00:54:49.143Z,-79
2022-09-21T00:57:21.265Z,-80
2022-09-21T00:59:53.032Z,-80
2022-09-21T01:02:21.873Z,-79
2022-09-21T01:04:55.758Z,-80
2022-09-21T01:07:28.865Z,-80
2022-09-21T01:10:04.268Z,-80
2022-09-21T01:12:52.371Z,-80
2022-09-21T01:15:33.305Z,-79
2022-09-21T01:18:13.675Z,-80
2022-09-21T01:21:16.381Z,-80
2022-09-21T01:24:37.543Z,-81
2022-09-21T01:27:55.101Z,-80
2022-09-21T01:30:26.687Z,-81
2022-09-21T01:33:05.605Z,-80
2022-09-21T01:35:39.567Z,-81
2022-09-21T01:38:13.801Z,-80
2022-09-21T01:40:46.606Z,-80
2022-09-21T01:43:27.488Z,-81
2022-09-21T01:46:02.271Z,-80
2022-09-21T01:48:39.677Z,-80
2022-09-21T01:51:13.928Z,-80
2022-09-21T01:53:48.614Z,-81
2022-09-21T01:56:25.032Z,-81
2022-09-21T01:59:04.729Z,-80
2022-09-21T02:01:41.247Z,-81
2022-09-21T02:04:13.787Z,-80
2022-09-21T02:06:47.838Z,-81
2022-09-21T02:09:16.706Z,-80
2022-09-21T02:11:46.074Z,-80
2022-09-21T02:14:19.368Z,-80
2022-09-21T02:17:02.830Z,-80
2022-09-21T02:19:41.772Z,-80
2022-09-21T02:22:18.788Z,-80
2022-09-21T02:24:52.306Z,-79
2022-09-21T02:27:33.464Z,-80
2022-09-21T02:30:10.504Z,-80
2022-09-21T02:32:52.076Z,-79
2022-09-21T02:35:33.821Z,-79
2022-09-21T02:38:12.387Z,-79
2022-09-21T02:40:47.722Z,-80
2022-09-21T02:43:24.462Z,-80
2022-09-21T02:45:59.804Z,-80
2022-09-21T02:48:37.075Z,-80
2022-09-21T02:51:11.939Z,-80
2022-09-21T02:53:42.936Z,-79
2022-09-21T02:56:13.205Z,-80
2022-09-21T02:58:49.318Z,-80
2022-09-21T03:01:20.055Z,-80
2022-09-21T03:03:50.454Z,-80
2022-09-21T03:06:18.944Z,-80
2022-09-21T03:08:47.609Z,-80
2022-09-21T03:11:18.774Z,-80
2022-09-21T03:13:47.825Z,-80
2022-09-21T03:16:16.531Z,-80
2022-09-21T03:18:45.200Z,-80
2022-09-21T03:21:15.012Z,-79
2022-09-21T03:23:43.531Z,-80
2022-09-21T03:26:11.944Z,-80
2022-09-21T03:28:40.402Z,-79
2022-09-21T03:31:08.894Z,-79
2022-09-21T03:33:37.413Z,-80
2022-09-21T03:36:06.042Z,-79
2022-09-21T03:38:36.483Z,-80
2022-09-21T03:41:05.234Z,-79
2022-09-21T03:43:34.174Z,-79
2022-09-21T03:46:02.655Z,-80
2022-09-21T03:48:32.711Z,-80
2022-09-21T03:51:01.176Z,-80
2022-09-21T03:53:29.596Z,-80
2022-09-21T03:56:00.646Z,-80
2022-09-21T03:58:29.084Z,-80
2022-09-21T04:01:04.088Z,-79
2022-09-21T04:03:32.600Z,-79
2022-09-21T04:06:01.740Z,-79
2022-09-21T04:08:33.015Z,-80
2022-09-21T04:11:03.369Z,-79
2022-09-21T04:13:31.750Z,-79
2022-09-21T04:16:00.191Z,-80
2022-09-21T04:18:28.647Z,-79
2022-09-21T04:20:57.116Z,-80
2022-09-21T04:23:25.648Z,-80
2022-09-21T04:25:57.508Z,-80
2022-09-21T04:28:27.306Z,-80
2022-09-21T04:30:56.386Z,-80
2022-09-21T04:33:25.040Z,-79
2022-09-21T04:35:56.942Z,-79
2022-09-21T04:38:25.534Z,-80
2022-09-21T04:40:58.648Z,-79
2022-09-21T04:43:28.540Z,-79
2022-09-21T04:45:57.051Z,-79
2022-09-21T04:48:25.831Z,-79
2022-09-21T04:50:54.277Z,-79
2022-09-21T04:53:22.776Z,-80
2022-09-21T04:55:52.378Z,-79
2022-09-21T04:58:24.352Z,-80
2022-09-21T05:00:56.788Z,-80
2022-09-21T05:03:27.156Z,-79
2022-09-21T05:05:58.254Z,-80
2022-09-21T05:08:42.462Z,-80
2022-09-21T05:11:14.249Z,-79
2022-09-21T05:13:43.188Z,-79
2022-09-21T05:16:12.973Z,-79
2022-09-21T05:18:41.451Z,-79
2022-09-21T05:21:13.066Z,-80
2022-09-21T05:23:41.723Z,-79
2022-09-21T05:26:10.281Z,-79
2022-09-21T05:28:40.353Z,-79
2022-09-21T05:31:39.235Z,-79
2022-09-21T05:34:24.986Z,-79
2022-09-21T05:37:03.285Z,-80
2022-09-21T05:39:32.732Z,-80
2022-09-21T05:42:02.019Z,-80
2022-09-21T05:44:31.129Z,-80
2022-09-21T05:47:09.743Z,-75
2022-09-21T05:49:55.874Z,-75
2022-09-21T05:52:38.047Z,-75
2022-09-21T05:55:21.069Z,-77
2022-09-21T05:58:01.617Z,-76
2022-09-21T06:00:43.405Z,-76
2022-09-21T06:03:29.508Z,-76
2022-09-21T06:05:58.491Z,-76
2022-09-21T06:08:27.710Z,-76
2022-09-21T06:10:57.397Z,-77
2022-09-21T06:13:26.618Z,-76
2022-09-21T06:15:55.134Z,-76
2022-09-21T06:18:24.969Z,-76
2022-09-21T06:20:53.361Z,-76
2022-09-21T06:23:21.874Z,-75
2022-09-21T06:25:58.257Z,-76
2022-09-21T06:28:28.002Z,-76
2022-09-21T06:30:58.372Z,-76
2022-09-21T06:33:28.384Z,-76
2022-09-21T06:35:59.637Z,-77
2022-09-21T06:38:29.484Z,-76
2022-09-21T06:41:03.887Z,-76
2022-09-21T06:43:33.035Z,-76
2022-09-21T06:46:03.909Z,-76
2022-09-21T06:48:35.635Z,-76
2022-09-21T06:51:07.246Z,-76
2022-09-21T06:53:36.287Z,-76
2022-09-21T06:56:07.092Z,-76
2022-09-21T06:58:37.703Z,-77
2022-09-21T07:01:08.558Z,-77
2022-09-21T07:03:40.366Z,-75
2022-09-21T07:06:11.791Z,-76
2022-09-21T07:11:28.835Z,-75
2022-09-21T07:13:58.490Z,-75
2022-09-21T07:16:28.095Z,-75
2022-09-21T07:19:10.048Z,-75
2022-09-21T07:21:39.231Z,-75
2022-09-21T07:24:11.951Z,-75
2022-09-21T07:26:41.522Z,-75
2022-09-21T07:29:10.120Z,-75
2022-09-21T07:31:38.747Z,-75
2022-09-21T07:34:08.579Z,-75
2022-09-21T07:36:37.006Z,-75
2022-09-21T07:39:06.004Z,-75
2022-09-21T07:41:34.419Z,-75
2022-09-21T07:44:03.546Z,-75
2022-09-21T07:46:31.991Z,-75
2022-09-21T07:49:00.582Z,-75
2022-09-21T07:51:30.365Z,-75
2022-09-21T07:53:58.852Z,-75
2022-09-21T07:56:27.670Z,-76
2022-09-21T07:59:06.823Z,-76
2022-09-21T08:01:36.952Z,-76
2022-09-21T08:04:09.194Z,-76
2022-09-21T08:06:41.106Z,-77
2022-09-21T08:09:09.856Z,-76
2022-09-21T08:11:39.178Z,-77
2022-09-21T08:14:07.770Z,-76
2022-09-21T08:16:38.812Z,-76
2022-09-21T08:19:07.241Z,-76
2022-09-21T08:21:35.606Z,-76
2022-09-21T08:24:05.898Z,-76
2022-09-21T08:26:35.055Z,-77
2022-09-21T08:29:03.870Z,-77
2022-09-21T08:31:32.307Z,-77
2022-09-21T08:34:01.138Z,-77
2022-09-21T08:36:29.522Z,-76
2022-09-21T08:38:57.944Z,-76
2022-09-21T08:41:53.644Z,-76
2022-09-21T08:44:30.508Z,-76
2022-09-21T08:47:06.943Z,-77
2022-09-21T08:49:39.195Z,-77
2022-09-21T08:52:16.410Z,-77
2022-09-21T08:54:53.041Z,-76
2022-09-21T08:57:27.658Z,-77
2022-09-21T08:59:56.038Z,-76
2022-09-21T09:02:47.607Z,-76
2022-09-21T09:05:40.848Z,-77
2022-09-21T09:08:46.587Z,-76
2022-09-21T09:11:40.642Z,-76
2022-09-21T09:14:50.371Z,-77
2022-09-21T09:17:40.768Z,-77
2022-09-21T09:20:16.927Z,-77
2022-09-21T09:23:00.695Z,-76
2022-09-21T09:25:36.962Z,-76
2022-09-21T09:28:21.614Z,-76
2022-09-21T09:31:01.046Z,-76
2022-09-21T09:33:44.874Z,-77
2022-09-21T09:36:14.966Z,-76
2022-09-21T09:38:52.412Z,-77
2022-09-21T09:41:54.162Z,-76
2022-09-21T09:44:47.953Z,-77
2022-09-21T09:47:36.040Z,-77
2022-09-21T09:50:11.816Z,-76
2022-09-21T09:52:41.732Z,-77
2022-09-21T09:55:21.929Z,-76
2022-09-21T09:57:50.861Z,-77
2022-09-21T10:00:22.802Z,-77
2022-09-21T10:02:55.339Z,-77
2022-09-21T10:05:32.073Z,-77
2022-09-21T10:08:00.828Z,-76
2022-09-21T10:10:37.029Z,-75
2022-09-21T10:13:17.944Z,-75
2022-09-21T10:15:52.739Z,-75
2022-09-21T10:18:27.186Z,-75
2022-09-21T10:21:03.942Z,-75
2022-09-21T10:23:34.327Z,-76
2022-09-21T10:26:06.763Z,-76
2022-09-21T10:28:36.162Z,-76
2022-09-21T10:31:22.481Z,-76
2022-09-21T10:34:05.808Z,-76
2022-09-21T10:36:37.384Z,-76
2022-09-21T10:39:23.680Z,-76
2022-09-21T10:41:58.380Z,-76
2022-09-21T10:44:34.300Z,-77
2022-09-21T10:47:23.782Z,-76
2022-09-21T10:49:57.129Z,-76
2022-09-21T10:52:35.651Z,-77
2022-09-21T10:55:04.239Z,-77
2022-09-21T10:57:35.400Z,-77
2022-09-21T11:00:29.367Z,-77
2022-09-21T11:03:01.130Z,-76
2022-09-21T11:05:35.552Z,-77
2022-09-21T11:08:12.785Z,-77
2022-09-21T11:10:51.274Z,-77
2022-09-21T11:13:31.904Z,-77
2022-09-21T11:16:15.206Z,-77
2022-09-21T11:18:55.408Z,-76
2022-09-21T11:21:41.743Z,-74
2022-09-21T11:24:22.107Z,-76
2022-09-21T11:26:57.586Z,-76
2022-09-21T11:29:35.326Z,-75
2022-09-21T11:32:34.831Z,-75
2022-09-21T11:35:36.696Z,-75
2022-09-21T11:38:20.509Z,-75
2022-09-21T11:41:22.055Z,-75
2022-09-21T11:44:18.563Z,-75
2022-09-21T11:46:58.785Z,-75
2022-09-21T11:50:03.093Z,-76
2022-09-21T11:52:56.836Z,-76
2022-09-21T11:55:49.221Z,-76
2022-09-21T11:58:30.917Z,-76
2022-09-21T12:01:12.137Z,-76
2022-09-21T12:04:07.524Z,-76
2022-09-21T12:06:51.794Z,-76
2022-09-21T12:09:48.926Z,-76
2022-09-21T12:12:24.865Z,-76
2022-09-21T12:15:03.788Z,-76
2022-09-21T12:17:45.605Z,-76
2022-09-21T12:20:24.881Z,-76
2022-09-21T12:23:02.052Z,-77
2022-09-21T12:25:37.157Z,-77
2022-09-21T12:28:14.593Z,-75
2022-09-21T12:30:51.550Z,-75
2022-09-21T12:33:33.444Z,-76
2022-09-21T12:36:11.657Z,-76
2022-09-21T12:38:50.018Z,-77
2022-09-21T12:41:28.814Z,-76
2022-09-21T12:44:11.236Z,-77
2022-09-21T12:46:51.059Z,-77
2022-09-21T12:49:31.592Z,-75
2022-09-21T12:52:07.119Z,-75
2022-09-21T12:54:46.893Z,-75
2022-09-21T12:57:53.524Z,-75
2022-09-21T13:00:24.419Z,-75
2022-09-21T13:02:59.613Z,-75
2022-09-21T13:05:40.467Z,-75
2022-09-21T13:08:14.377Z,-75
2022-09-21T13:10:58.040Z,-75
2022-09-21T13:13:33.471Z,-75
2022-09-21T13:16:05.307Z,-75
2022-09-21T13:18:37.141Z,-75
2022-09-21T13:21:19.283Z,-75
2022-09-21T13:23:57.455Z,-75
2022-09-21T13:26:39.152Z,-75
2022-09-21T13:29:31.495Z,-75
2022-09-21T13:32:04.084Z,-75
2022-09-21T13:34:36.233Z,-75
2022-09-21T13:37:30.029Z,-74
2022-09-21T13:40:50.283Z,-75
2022-09-21T13:43:26.197Z,-75
2022-09-21T13:45:59.506Z,-75
2022-09-21T13:48:30.933Z,-75
2022-09-21T13:51:07.171Z,-75
2022-09-21T13:53:42.053Z,-75
2022-09-21T13:56:25.848Z,-75
2022-09-21T13:58:57.776Z,-75
2022-09-21T14:01:46.825Z,-75
2022-09-21T14:04:27.388Z,-75
2022-09-21T14:06:58.202Z,-75
2022-09-21T14:09:31.997Z,-75
2022-09-21T14:12:07.182Z,-75
2022-09-21T14:14:38.644Z,-75
2022-09-21T14:17:38.908Z,-75
2022-09-21T14:20:30.431Z,-75
2022-09-21T14:23:29.815Z,-75
2022-09-21T14:26:01.501Z,-76
2022-09-21T14:28:38.548Z,-75
2022-09-21T14:31:17.152Z,-75
2022-09-21T14:33:51.417Z,-75
2022-09-21T14:36:28.995Z,-75
2022-09-21T14:39:04.870Z,-75
2022-09-21T14:41:41.456Z,-75
2022-09-21T14:44:21.808Z,-75
2022-09-21T14:47:17.724Z,-75
2022-09-21T14:50:08.117Z,-75
2022-09-21T14:52:57.254Z,-75
2022-09-21T14:55:35.368Z,-76
2022-09-21T14:58:28.478Z,-75
2022-09-21T15:00:59.659Z,-75
2022-09-21T15:03:56.744Z,-75
2022-09-21T15:06:54.508Z,-75
2022-09-21T15:10:10.359Z,-75
2022-09-21T15:12:52.713Z,-75
2022-09-21T15:15:38.443Z,-75
2022-09-21T15:18:20.454Z,-75
2022-09-21T15:21:01.461Z,-76
2022-09-21T15:23:35.953Z,-76
2022-09-21T15:26:09.688Z,-76
2022-09-21T15:29:13.969Z,-76
2022-09-21T15:31:40.587Z,-76
2022-09-21T15:34:11.163Z,-76
2022-09-21T15:36:42.078Z,-77
2022-09-21T15:39:26.907Z,-76
2022-09-21T15:42:22.768Z,-76
2022-09-21T15:45:06.036Z,-75
2022-09-21T15:47:35.245Z,-76
2022-09-21T15:50:04.059Z,-76
2022-09-21T15:52:40.222Z,-76
2022-09-21T15:55:21.348Z,-78
2022-09-21T15:57:52.192Z,-76
2022-09-21T16:00:26.400Z,-75
2022-09-21T16:03:07.609Z,-76
2022-09-21T16:05:47.334Z,-75
2022-09-21T16:08:33.525Z,-75
2022-09-21T16:11:28.149Z,-75
2022-09-21T16:14:21.013Z,-76
2022-09-21T16:17:24.812Z,-75
2022-09-21T16:20:19.765Z,-75
2022-09-21T16:22:52.405Z,-75
2022-09-21T16:25:32.714Z,-75
2022-09-21T16:28:06.117Z,-76
2022-09-21T16:30:48.889Z,-75
2022-09-21T16:33:57.357Z,-75
2022-09-21T16:36:43.268Z,-76
2022-09-21T16:39:15.908Z,-76
2022-09-21T16:42:04.613Z,-76
2022-09-21T16:44:44.545Z,-75
2022-09-21T16:47:16.654Z,-75
2022-09-21T16:49:45.230Z,-75
2022-09-21T16:52:16.506Z,-75
2022-09-21T16:54:48.653Z,-75
2022-09-21T16:57:17.567Z,-75
2022-09-21T16:59:47.956Z,-75
2022-09-21T17:02:16.551Z,-75
2022-09-21T17:04:47.215Z,-76
2022-09-21T17:07:16.977Z,-76
2022-09-21T17:09:48.244Z,-76
2022-09-21T17:12:18.811Z,-76
2022-09-21T17:14:50.345Z,-75
2022-09-21T17:17:22.573Z,-75
2022-09-21T17:19:54.571Z,-75
2022-09-21T17:22:25.492Z,-75
2022-09-21T17:24:54.949Z,-79
2022-09-21T17:27:26.790Z,-76
2022-09-21T17:29:57.095Z,-76
2022-09-21T17:32:26.501Z,-76
2022-09-21T17:35:01.677Z,-76
2022-09-21T17:37:30.105Z,-79
2022-09-21T17:39:59.269Z,-79
2022-09-21T17:42:30.046Z,-79
2022-09-21T17:45:25.297Z,-79
2022-09-21T17:47:54.324Z,-78
2022-09-21T17:50:27.139Z,-78
2022-09-21T17:53:14.821Z,-78
2022-09-21T17:55:52.957Z,-78
2022-09-21T17:58:45.618Z,-79
2022-09-21T18:01:30.988Z,-79
2022-09-21T18:04:00.164Z,-79
2022-09-21T18:06:29.817Z,-78
2022-09-21T18:08:59.163Z,-79
2022-09-21T18:12:09.618Z,-79
2022-09-21T18:14:57.556Z,-79
2022-09-21T18:17:47.596Z,-79
2022-09-21T18:20:32.439Z,-79
2022-09-21T18:23:19.101Z,-79
2022-09-21T18:25:52.770Z,-79
2022-09-21T18:28:33.304Z,-79
2022-09-21T18:31:25.454Z,-79
2022-09-21T18:34:13.237Z,-79
2022-09-21T18:36:53.044Z,-79
2022-09-21T18:39:35.133Z,-79
2022-09-21T18:42:22.531Z,-79
2022-09-21T18:45:01.429Z,-79
2022-09-21T18:47:36.845Z,-79
2022-09-21T18:50:21.108Z,-79
2022-09-21T18:53:02.787Z,-78
2022-09-21T18:55:33.418Z,-79
2022-09-21T18:58:02.977Z,-79
2022-09-21T19:00:34.354Z,-78
2022-09-21T19:03:17.793Z,-78
2022-09-21T19:06:01.576Z,-79
2022-09-21T19:08:40.241Z,-79
2022-09-21T19:11:20.328Z,-79
2022-09-21T19:13:59.426Z,-79
2022-09-21T19:16:35.197Z,-79
2022-09-21T19:19:24.935Z,-78
2022-09-21T19:22:05.441Z,-79
2022-09-21T19:24:42.726Z,-79
2022-09-21T19:27:27.192Z,-79
2022-09-21T19:30:06.920Z,-79
2022-09-21T19:32:43.844Z,-79
2022-09-21T19:35:24.681Z,-79
2022-09-21T19:37:56.365Z,-79
2022-09-21T19:40:27.813Z,-79
2022-09-21T19:43:32.077Z,-79
2022-09-21T19:46:20.027Z,-79
2022-09-21T19:48:53.338Z,-77
2022-09-21T19:51:36.665Z,-77
2022-09-21T19:54:33.049Z,-78
2022-09-21T19:57:19.845Z,-78
2022-09-21T19:59:51.389Z,-78
2022-09-21T20:02:28.737Z,-78
2022-09-21T20:05:02.220Z,-78
2022-09-21T20:07:44.728Z,-78
2022-09-21T20:10:42.151Z,-78
2022-09-21T20:13:31.897Z,-77
2022-09-21T20:16:18.341Z,-79
2022-09-21T20:18:58.043Z,-78
2022-09-21T20:21:39.546Z,-79
2022-09-21T20:24:23.098Z,-78
2022-09-21T20:26:53.633Z,-78
2022-09-21T20:29:23.197Z,-78
2022-09-21T20:31:54.161Z,-79
2022-09-21T20:34:22.598Z,-79
2022-09-21T20:36:51.091Z,-79
2022-09-21T20:39:19.472Z,-79
2022-09-21T20:41:47.906Z,-79
2022-09-21T20:44:17.701Z,-79
2022-09-21T20:46:46.082Z,-79
2022-09-21T20:49:16.117Z,-79
2022-09-21T20:51:45.993Z,-79
2022-09-21T20:54:14.452Z,-79
2022-09-21T20:56:42.831Z,-79
2022-09-21T20:59:11.209Z,-79
2022-09-21T21:01:41.165Z,-79
2022-09-21T21:04:11.971Z,-79
2022-09-21T21:06:40.384Z,-79
2022-09-21T21:09:08.786Z,-79
2022-09-21T21:11:37.341Z,-79
2022-09-21T21:14:05.784Z,-79
2022-09-21T21:16:34.425Z,-79
2022-09-21T21:19:04.690Z,-79
2022-09-21T21:21:34.535Z,-79
2022-09-21T21:24:20.925Z,-79
2022-09-21T21:27:01.657Z,-80
2022-09-21T21:29:31.177Z,-80
2022-09-21T21:32:00.859Z,-79
2022-09-21T21:34:30.684Z,-80
2022-09-21T21:36:59.552Z,-79
2022-09-21T21:39:28.134Z,-79
2022-09-21T21:41:56.484Z,-79
2022-09-21T21:44:25.068Z,-79
2022-09-21T21:46:54.801Z,-80
2022-09-21T21:49:23.218Z,-79
2022-09-21T21:51:53.715Z,-79
2022-09-21T21:54:24.862Z,-79
2022-09-21T21:56:54.772Z,-79
2022-09-21T21:59:23.361Z,-79
2022-09-21T22:01:53.238Z,-80
2022-09-21T22:04:25.737Z,-80
2022-09-21T22:06:57.728Z,-80
2022-09-21T22:09:26.162Z,-79
2022-09-21T22:11:54.689Z,-79
2022-09-21T22:14:23.225Z,-80
2022-09-21T22:16:52.753Z,-79
2022-09-21T22:19:21.319Z,-79
2022-09-21T22:21:54.006Z,-79
2022-09-21T22:24:25.207Z,-79
2022-09-21T22:26:53.626Z,-80
2022-09-21T22:29:22.046Z,-79
2022-09-21T22:31:51.769Z,-80
2022-09-21T22:34:20.928Z,-81
2022-09-21T22:36:50.300Z,-80
2022-09-21T22:39:18.994Z,-80
2022-09-21T22:41:48.771Z,-80
2022-09-21T22:44:17.320Z,-80
2022-09-21T22:46:45.726Z,-80
2022-09-21T22:49:14.119Z,-78
2022-09-21T22:51:42.526Z,-80
2022-09-21T22:54:10.949Z,-79
2022-09-21T22:56:39.342Z,-78
2022-09-21T22:59:09.601Z,-79
2022-09-21T23:01:41.257Z,-79
2022-09-21T23:04:13.761Z,-80
2022-09-21T23:06:45.098Z,-80
2022-09-21T23:09:16.705Z,-80
2022-09-21T23:11:48.091Z,-80
2022-09-21T23:14:18.888Z,-80
2022-09-21T23:16:47.823Z,-80
2022-09-21T23:19:18.889Z,-80
2022-09-21T23:21:50.622Z,-80
2022-09-21T23:24:20.540Z,-80
2022-09-21T23:26:52.158Z,-80
2022-09-21T23:29:22.015Z,-78
2022-09-21T23:31:50.505Z,-78
2022-09-21T23:34:19.022Z,-78
2022-09-21T23:36:47.498Z,-79
2022-09-21T23:39:16.989Z,-79
2022-09-21T23:41:46.031Z,-80
2022-09-21T23:44:14.957Z,-80
2022-09-21T23:46:46.915Z,-80
2022-09-21T23:49:15.419Z,-78
2022-09-21T23:51:43.869Z,-79
2022-09-21T23:54:12.611Z,-79
2022-09-21T23:56:41.021Z,-78
2022-09-21T23:59:11.127Z,-78
